Latest Weather Observations for Coolangatta

IDN60801

Issued at 6:35 pm EST Saturday 2 August 2014 (issued every 30 minutes, with the page automatically refreshed every 10 minutes)

About weather observations | Map of weather stations | Latest weather observations for NSW | Other Formats
Station Details ID: 040717 Name: COOLANGATTA Lat: -28.17 Lon: 153.51 Height: 4.0 m
Data from the previous 72 hours. | See also: Recent months at Coolangatta
Date/Time
EST
Temp
°C
App
Temp
°C
Dew
Point
Rel
Hum
%
Delta-T
°C
Wind Press
QNH
hPa
Press
MSL
hPa
Rain
since 9 am
mm
Dir
 
Spd
km/h
Gust
km/h
Spd
kts
Gust
kts
02/06:30pm 13.6 8.6 3.4 50 4.5 S 19 26 10 14 1025.8 - 0.0
02/06:00pm 13.5 9.6 3.3 50 4.5 S 13 19 7 10 1025.4 1025.4 0.0
02/05:30pm 14.5 9.4 3.3 47 5.1 SSE 19 24 10 13 1024.9 - 0.0
02/05:00pm 15.3 9.6 2.8 43 5.6 SSE 22 32 12 17 1024.4 - 0.0
02/04:30pm 15.9 9.0 2.3 40 6.1 SSE 28 37 15 20 1024.0 - 0.0
02/04:00pm 16.4 8.5 0.9 35 6.8 SSE 32 44 17 24 1023.6 - 0.0
02/03:30pm 17.2 10.1 1.2 34 7.1 SSE 28 37 15 20 1023.3 - 0.0
02/03:00pm 17.6 10.5 1.2 33 7.2 SE 28 35 15 19 1023.0 1023.0 0.0
02/02:30pm 18.4 11.2 -2.0 25 8.5 SSE 26 37 14 20 1022.7 - 0.0
02/02:00pm 18.5 10.9 -2.4 24 8.7 S 28 37 15 20 1022.6 - 0.0
02/01:30pm 18.6 10.6 -5.4 19 9.4 SSE 28 37 15 20 1022.5 - 0.0
02/01:00pm 18.8 11.9 -6.0 18 9.6 S 22 32 12 17 1022.6 - 0.0
02/12:30pm 19.2 13.3 -5.7 18 9.7 S 17 30 9 16 1022.7 - 0.0
02/12:00pm 19.0 12.8 -4.4 20 9.3 S 19 32 10 17 1022.9 1022.9 0.0
02/11:30am 18.4 12.6 -4.3 21 9.0 SSW 17 28 9 15 1023.0 - 0.0
02/11:00am 17.9 11.7 -4.7 21 8.9 SSW 19 28 10 15 1023.0 - 0.0
02/10:30am 17.1 10.4 -4.2 23 8.4 SSW 22 35 12 19 1023.2 - 0.0
02/10:00am 16.5 10.0 -5.9 21 8.5 SSW 20 35 11 19 1023.3 - 0.0
02/09:30am 15.8 9.4 -4.7 24 7.9 SSW 20 33 11 18 1023.0 - 0.0
02/09:00am 15.1 8.8 -3.7 27 7.3 SW 20 30 11 16 1022.8 1022.8 0.0
02/08:30am 14.5 8.5 -2.8 30 6.8 SSW 19 28 10 15 1022.5 - 0.0
02/08:00am 13.7 7.1 -3.1 31 6.5 SSW 22 35 12 19 1022.1 - 0.0
02/07:30am 13.1 6.2 -2.8 33 6.2 SSW 24 35 13 19 1021.9 - 0.0
02/07:00am 12.6 6.5 -2.4 35 5.9 SSW 20 33 11 18 1021.4 - 0.0
02/06:30am 12.5 6.0 -2.5 35 5.8 SSW 22 33 12 18 1021.0 - 0.0
02/06:00am 13.1 6.3 -1.6 36 5.9 S 24 33 13 18 1020.5 1020.5 0.0
02/05:30am 13.6 6.8 0.6 41 5.5 S 26 37 14 20 1020.0 - 0.0
02/05:00am 14.1 9.1 1.4 42 5.5 S 17 26 9 14 1019.5 - 0.0
02/04:30am 14.7 8.9 2.3 43 5.5 S 22 35 12 19 1018.7 - 0.0
02/04:00am 14.3 10.1 3.7 49 4.8 SSW 15 20 8 11 1018.2 - 0.0
02/03:30am 15.6 11.8 3.7 45 5.5 S 13 20 7 11 1018.1 - 0.0
02/03:00am 15.4 11.1 3.5 45 5.4 SSW 15 20 8 11 1017.9 1017.9 0.0
02/02:30am 16.1 11.2 3.9 44 5.6 SSW 19 26 10 14 1017.6 - 0.0
02/02:00am 13.2 9.8 3.8 53 4.2 S 11 15 6 8 1017.3 - 0.0
02/01:30am 13.8 10.5 4.7 54 4.2 S 11 15 6 8 1017.0 - 0.0
02/01:00am 13.3 11.0 5.5 59 3.7 SSW 7 11 4 6 1016.8 - 0.0
02/12:30am 14.8 11.7 7.4 61 3.6 WSW 13 20 7 11 1016.4 - 0.0
02/12:02am 11.6 9.8 11.0 96 0.3 WSW 11 13 6 7 1016.1 - 0.0
02/12:00am 11.6 10.2 11.0 96 0.3 WSW 9 11 5 6 1016.1 1016.1 0.0
 
Date/Time
EST
Temp
°C
App
Temp
°C
Dew
Point
Rel
Hum
%
Delta-T
°C
Wind Press
QNH
hPa
Press
MSL
hPa
Rain
since 9 am
mm
Dir
 
Spd
km/h
Gust
km/h
Spd
kts
Gust
kts
01/11:34pm 10.1 9.9 9.0 93 0.5 CALM 0 0 0 0 1015.7 - 0.0
01/11:32pm 10.6 10.5 9.5 93 0.6 CALM 0 0 0 0 1015.6 - 0.0
01/11:30pm 10.6 10.6 9.7 94 0.5 CALM 0 0 0 0 1015.6 - 0.0
01/11:11pm 10.8 9.6 9.4 91 0.7 S 6 7 3 4 1015.4 - 0.0
01/11:00pm 12.8 13.0 11.7 93 0.6 SW 2 7 1 4 1015.4 - 0.0
01/10:30pm 13.3 12.8 12.2 93 0.6 SSW 6 9 3 5 1015.1 - 0.0
01/10:00pm 13.3 11.8 11.9 91 0.7 WSW 11 13 6 7 1014.8 - 0.0
01/09:30pm 13.1 11.6 11.8 92 0.7 WSW 11 13 6 7 1014.2 - 0.0
01/09:00pm 14.2 13.4 12.8 91 0.8 WSW 9 13 5 7 1013.9 1013.9 0.0
01/08:30pm 15.1 14.4 13.3 89 1.0 WSW 9 13 5 7 1013.6 - 0.0
01/08:00pm 18.8 17.8 15.5 81 1.9 NNW 15 22 8 12 1013.2 - 0.0
01/07:30pm 18.9 18.0 14.8 77 2.4 NNW 13 19 7 10 1013.0 - 0.0
01/07:00pm 19.9 18.9 14.7 72 3.0 NNW 13 15 7 8 1012.6 - 0.0
01/06:30pm 20.1 19.0 16.3 79 2.3 NNW 17 20 9 11 1012.1 - 0.0
01/06:00pm 20.2 18.5 16.2 78 2.4 N 20 30 11 16 1011.5 1011.5 0.0
01/05:30pm 20.7 18.9 16.1 75 2.8 N 20 26 11 14 1010.9 - 0.0
01/05:00pm 20.9 18.5 16.5 76 2.7 N 24 33 13 18 1010.4 - 0.0
01/04:30pm 21.5 18.2 17.1 76 2.7 N 30 39 16 21 1010.3 - 0.0
01/04:00pm 21.9 20.2 17.1 74 2.9 N 22 28 12 15 1010.4 - 0.0
01/03:30pm 22.4 19.2 17.3 73 3.1 N 30 41 16 22 1010.5 - 0.0
01/03:00pm 22.5 20.4 17.2 72 3.3 N 24 32 13 17 1010.7 1010.7 0.0
01/02:30pm 22.3 19.5 16.3 69 3.6 N 26 33 14 18 1011.1 - 0.0
01/02:00pm 21.9 18.6 15.0 65 4.1 NNE 26 32 14 17 1011.5 - 0.0
01/01:30pm 22.6 19.5 15.7 65 4.1 NNE 26 33 14 18 1011.9 - 0.0
01/01:00pm 22.6 19.6 15.9 66 4.0 NNE 26 32 14 17 1012.4 - 0.0
01/12:30pm 22.7 19.5 15.3 63 4.4 N 26 33 14 18 1012.8 - 0.0
01/12:00pm 23.1 19.2 14.4 58 5.1 N 28 35 15 19 1013.3 1013.3 0.0
01/11:30am 22.4 18.0 14.0 59 4.9 N 30 37 16 20 1013.7 - 0.0
01/11:00am 21.9 18.5 14.8 64 4.2 N 26 35 14 19 1014.4 - 0.0
01/10:30am 20.3 17.5 13.3 64 4.0 N 20 28 11 15 1015.0 - 0.0
01/10:00am 20.4 17.9 13.4 64 4.0 N 19 24 10 13 1015.4 - 0.0
01/09:30am 19.8 17.1 13.5 67 3.6 N 20 26 11 14 1015.7 - 0.0
01/09:00am 19.6 17.0 13.3 67 3.6 N 19 24 10 13 1016.1 1016.1 0.0
01/08:30am 18.7 15.9 13.1 70 3.2 N 20 24 11 13 1016.0 - 0.0
01/08:00am 17.4 15.0 12.5 73 2.7 NNW 17 20 9 11 1016.0 - 0.0
01/07:52am 17.0 14.5 12.3 74 2.6 NNW 17 22 9 12 1016.1 - 0.0
01/07:30am 16.0 13.8 12.2 78 2.1 NNW 15 20 8 11 1016.1 - 0.0
01/07:00am 13.4 11.7 11.3 87 1.1 N 11 15 6 8 1016.0 - 0.0
01/06:30am 13.1 11.2 10.6 85 1.3 N 11 13 6 7 1015.9 - 0.0
01/06:00am 13.5 11.7 11.0 85 1.3 N 11 13 6 7 1015.9 1015.9 0.0
01/05:54am 13.0 11.5 10.5 85 1.3 N 9 11 5 6 1015.9 - 0.0
01/05:30am 13.5 12.0 10.7 83 1.5 NNW 9 13 5 7 1015.7 - 0.0
01/05:00am 14.2 12.7 11.9 86 1.2 NW 11 13 6 7 1015.7 - 0.0
01/04:30am 14.7 12.4 12.9 89 1.0 NW 17 19 9 10 1015.6 - 0.0
01/04:00am 13.1 11.5 11.7 91 0.7 W 11 13 6 7 1015.7 - 0.0
01/03:30am 14.0 12.7 12.4 90 0.9 WNW 11 17 6 9 1015.7 - 0.0
01/03:12am 12.4 9.7 11.8 96 0.3 N 17 20 9 11 1015.7 - 0.0
01/03:00am 11.5 10.1 10.9 96 0.3 N 9 13 5 7 1015.9 1015.9 0.0
01/02:30am 10.8 10.1 10.2 96 0.3 WSW 4 7 2 4 1016.4 - 0.0
01/02:29am 10.8 9.8 10.2 96 0.3 WSW 6 7 3 4 1016.4 - 0.0
01/02:24am 10.9 9.7 10.3 96 0.3 WSW 7 9 4 5 1016.5 - 0.0
01/02:01am 10.2 9.0 9.4 95 0.4 WSW 6 7 3 4 1016.6 - 0.0
01/02:00am 10.2 9.0 9.4 95 0.4 WSW 6 7 3 4 1016.6 - 0.0
01/01:57am 11.0 10.0 10.2 95 0.4 WSW 6 9 3 5 1016.6 - 0.0
01/01:30am 10.8 9.7 9.9 94 0.5 WSW 6 7 3 4 1016.7 - 0.0
01/01:08am 10.9 10.6 10.0 94 0.5 WSW 2 6 1 3 1016.9 - 0.0
01/01:00am 11.1 10.1 10.2 94 0.5 WSW 6 7 3 4 1017.0 - 0.0
01/12:30am 11.5 10.4 10.6 94 0.5 W 7 9 4 5 1017.4 - 0.0
01/12:00am 11.2 10.1 9.9 92 0.7 SW 6 7 3 4 1017.6 1017.6 0.0
 
Date/Time
EST
Temp
°C
App
Temp
°C
Dew
Point
Rel
Hum
%
Delta-T
°C
Wind Press
QNH
hPa
Press
MSL
hPa
Rain
since 9 am
mm
Dir
 
Spd
km/h
Gust
km/h
Spd
kts
Gust
kts
31/11:30pm 12.4 11.6 11.1 92 0.7 SW 6 9 3 5 1017.7 - 0.0
31/11:00pm 12.6 11.8 11.2 91 0.7 WSW 6 7 3 4 1017.7 - 0.0
31/10:30pm 13.5 12.8 11.9 90 0.9 W 7 9 4 5 1017.7 - 0.0
31/10:00pm 13.3 12.0 11.4 88 1.0 W 9 13 5 7 1017.7 - 0.0
31/09:30pm 13.6 12.8 11.8 89 1.0 WNW 7 9 4 5 1017.7 - 0.0
31/09:00pm 13.8 13.1 12.0 89 1.0 W 7 11 4 6 1017.6 1017.6 0.0
31/08:30pm 14.6 13.5 12.1 85 1.4 W 9 11 5 6 1017.4 - 0.0
31/08:00pm 15.2 14.7 12.5 84 1.5 WSW 7 9 4 5 1017.1 - 0.0
31/07:30pm 17.6 16.6 12.3 71 2.9 WNW 9 11 5 6 1016.9 - 0.0
31/07:00pm 18.9 17.5 13.3 70 3.2 NNW 13 19 7 10 1016.5 - 0.0
31/06:30pm 19.5 17.3 14.3 72 3.0 NNW 19 26 10 14 1016.4 - 0.0
31/06:00pm 19.4 17.2 14.9 75 2.6 N 20 28 11 15 1016.1 1016.1 0.0
31/05:30pm 19.7 16.7 14.7 73 2.9 N 24 33 13 18 1015.8 - 0.0
31/05:00pm 19.9 16.0 14.5 71 3.1 N 28 35 15 19 1015.6 - 0.0
31/04:30pm 20.3 16.4 14.4 69 3.4 N 28 35 15 19 1015.5 - 0.0
31/04:00pm 21.1 17.2 14.5 66 3.9 N 28 33 15 18 1015.4 - 0.0
31/03:30pm 21.7 17.5 14.6 64 4.2 N 30 39 16 21 1015.4 - 0.0
31/03:00pm 22.1 17.1 12.1 53 5.6 N 30 37 16 20 1015.5 1015.5 0.0
31/02:30pm 21.9 17.0 11.3 51 5.9 N 28 37 15 20 1015.6 - 0.0
31/02:00pm 22.1 17.1 12.1 53 5.6 N 30 37 16 20 1015.8 - 0.0
31/01:30pm 21.9 17.1 11.6 52 5.7 N 28 35 15 19 1016.4 - 0.0
31/01:00pm 22.3 17.6 10.8 48 6.3 N 26 33 14 18 1017.1 - 0.0
31/12:30pm 22.0 17.4 9.5 45 6.7 N 24 30 13 16 1017.8 - 0.0
31/12:00pm 21.8 17.4 10.3 48 6.3 N 24 30 13 16 1018.5 1018.5 0.0
31/11:30am 21.7 16.7 8.2 42 7.1 N 24 30 13 16 1019.3 - 0.0
31/11:00am 20.8 16.2 9.7 49 5.9 N 24 28 13 15 1019.9 - 0.0
31/10:30am 20.4 17.0 11.3 56 5.0 N 20 24 11 13 1020.4 - 0.0
31/10:00am 19.6 16.2 10.6 56 4.9 N 19 22 10 12 1020.8 - 0.0
31/09:30am 18.3 16.4 10.4 60 4.2 NNE 11 17 6 9 1020.9 - 0.0
31/09:00am 16.4 14.2 10.9 70 2.9 N 13 17 7 9 1021.0 1021.0 0.0
31/08:30am 14.1 13.9 9.1 72 2.5 CALM 0 0 0 0 1020.9 - 0.0
31/08:00am 10.3 10.1 9.1 92 0.6 CALM 0 0 0 0 1020.7 - 0.0
31/07:30am 8.4 7.2 8.0 97 0.2 WSW 4 7 2 4 1020.4 - 0.0
31/07:22am 7.5 5.7 7.1 97 0.2 WSW 6 7 3 4 1020.3 - 0.0
31/07:00am 5.6 4.5 5.2 97 0.2 CALM 0 0 0 0 1020.3 - 0.0
31/06:30am 5.2 3.3 4.8 97 0.2 WSW 4 6 2 3 1020.1 - 0.0
31/06:24am 5.4 3.1 5.0 97 0.2 WSW 6 7 3 4 1020.0 - 0.0
31/06:17am 6.0 3.7 5.6 97 0.2 WSW 7 9 4 5 1019.9 - 0.0
31/06:00am 5.2 2.9 4.6 96 0.3 WSW 6 7 3 4 1019.8 1019.8 0.0
31/05:30am 5.8 3.6 5.4 97 0.2 WSW 6 7 3 4 1019.7 - 0.0
31/05:00am 6.7 5.8 6.1 96 0.3 CALM 0 0 0 0 1019.6 - 0.0
31/04:30am 5.6 4.5 5.0 96 0.3 CALM 0 0 0 0 1019.5 - 0.0
31/04:00am 5.6 4.5 4.9 95 0.3 CALM 0 0 0 0 1019.4 - 0.0
31/03:30am 6.4 5.4 5.7 95 0.3 CALM 0 6 0 3 1019.3 - 0.0
31/03:00am 6.9 4.7 6.2 95 0.3 WSW 7 9 4 5 1019.4 1019.4 0.0
31/02:51am 6.7 4.5 6.0 95 0.3 WSW 7 9 4 5 1019.4 - 0.0
31/02:49am 6.9 4.9 6.2 95 0.3 WSW 6 9 3 5 1019.5 - 0.0
31/02:34am 6.7 5.7 5.7 93 0.4 CALM 0 0 0 0 1019.6 - 0.0
31/02:30am 7.2 6.4 6.3 94 0.4 CALM 0 0 0 0 1019.6 - 0.0
31/02:00am 7.1 4.8 5.7 91 0.6 WSW 7 9 4 5 1019.8 - 0.0
31/01:30am 8.3 6.6 7.5 95 0.4 W 6 9 3 5 1019.9 - 0.0
31/01:04am 7.8 7.0 6.6 92 0.6 CALM 0 0 0 0 1020.0 - 0.0
31/01:00am 8.2 7.5 7.1 93 0.5 CALM 0 0 0 0 1020.1 - 0.0
31/12:45am 8.1 7.3 6.7 91 0.6 CALM 0 0 0 0 1020.2 - 0.0
31/12:30am 8.8 7.1 7.7 93 0.5 WSW 6 7 3 4 1020.2 - 0.0
31/12:00am 9.0 7.2 7.8 92 0.6 W 7 9 4 5 1020.3 1020.3 0.0
 
Date/Time
EST
Temp
°C
App
Temp
°C
Dew
Point
Rel
Hum
%
Delta-T
°C
Wind Press
QNH
hPa
Press
MSL
hPa
Rain
since 9 am
mm
Dir
 
Spd
km/h
Gust
km/h
Spd
kts
Gust
kts
30/11:30pm 9.4 7.7 8.3 93 0.5 WSW 7 9 4 5 1020.6 - 0.0
30/11:00pm 8.4 6.4 6.9 90 0.7 WSW 7 9 4 5 1020.7 - 0.0
30/10:30pm 8.8 6.6 6.2 84 1.2 WSW 7 9 4 5 1020.7 - 0.0
30/10:00pm 9.8 7.2 7.9 88 0.9 WSW 11 13 6 7 1021.0 - 0.0
30/09:30pm 10.5 9.0 8.6 88 0.9 WSW 6 7 3 4 1020.9 - 0.0
30/09:00pm 10.9 9.3 8.8 87 1.0 WSW 7 9 4 5 1020.9 1020.9 0.0
30/08:30pm 10.7 9.5 8.1 84 1.3 SSW 4 6 2 3 1020.9 - 0.0
30/08:00pm 11.2 9.8 8.8 85 1.2 WSW 6 11 3 6 1020.9 - 0.0
30/07:30pm 11.5 9.4 8.4 81 1.5 WSW 9 13 5 7 1020.7 - 0.0
30/07:00pm 11.3 10.5 8.2 81 1.5 WSW 2 7 1 4 1020.6 - 0.0

Other Formats:

Comma delimited format used in spreadsheet applications
http://www.bom.gov.au/fwo/IDN60801/IDN60801.94592.axf

JavaScript Object Notation format (JSON) in row-major order
http://www.bom.gov.au/fwo/IDN60801/IDN60801.94592.json